createdAt,value
2018-09-30T00:02:18.059Z,8.03
2018-09-30T00:04:47.505Z,6.90
2018-09-30T00:07:16.815Z,8.60
2018-09-30T00:09:46.824Z,7.77
2018-09-30T00:12:16.448Z,6.53
2018-09-30T00:14:46.872Z,10.00
2018-09-30T00:17:16.547Z,6.93
2018-09-30T00:19:49.500Z,7.57
2018-09-30T00:22:19.207Z,7.43
2018-09-30T00:24:54.277Z,6.97
2018-09-30T00:27:24.456Z,7.63
2018-09-30T00:29:55.575Z,7.07
2018-09-30T00:32:25.075Z,7.40
2018-09-30T00:34:54.886Z,6.87
2018-09-30T00:37:25.576Z,6.67
2018-09-30T00:39:55.362Z,6.77
2018-09-30T00:42:24.274Z,6.30
2018-09-30T00:44:53.882Z,9.17
2018-09-30T00:47:23.124Z,7.13
2018-09-30T00:49:53.697Z,6.17
2018-09-30T00:52:23.037Z,10.27
2018-09-30T00:54:52.211Z,6.77
2018-09-30T00:57:21.590Z,8.10
2018-09-30T00:59:51.251Z,8.83
2018-09-30T01:02:20.658Z,8.43
2018-09-30T01:04:51.829Z,7.10
2018-09-30T01:07:21.658Z,6.97
2018-09-30T01:09:51.167Z,7.10
2018-09-30T01:12:20.657Z,7.53
2018-09-30T01:14:49.914Z,6.50
2018-09-30T01:17:19.082Z,7.23
2018-09-30T01:19:48.188Z,7.73
2018-09-30T01:22:17.487Z,8.83
2018-09-30T01:24:53.312Z,9.27
2018-09-30T01:27:22.076Z,7.87
2018-09-30T01:29:51.350Z,8.00
2018-09-30T01:32:21.191Z,7.90
2018-09-30T01:35:04.078Z,6.77
2018-09-30T01:37:33.064Z,7.10
2018-09-30T01:40:02.634Z,7.30
2018-09-30T01:42:31.575Z,7.40
2018-09-30T01:45:01.079Z,7.07
2018-09-30T01:47:30.023Z,8.80
2018-09-30T01:49:59.620Z,8.30
2018-09-30T01:52:39.868Z,8.17
2018-09-30T01:55:09.264Z,7.93
2018-09-30T01:57:39.759Z,11.77
2018-09-30T02:00:09.184Z,7.77
2018-09-30T02:02:41.441Z,8.20
2018-09-30T02:05:10.495Z,11.00
2018-09-30T02:07:47.383Z,7.53
2018-09-30T02:10:17.592Z,7.07
2018-09-30T02:12:46.957Z,6.93
2018-09-30T02:15:16.453Z,7.97
2018-09-30T02:17:46.260Z,8.07
2018-09-30T02:20:15.620Z,9.20
2018-09-30T02:22:45.807Z,7.93
2018-09-30T02:25:15.284Z,7.20
2018-09-30T02:27:44.679Z,9.33
2018-09-30T02:30:13.575Z,7.33
2018-09-30T02:32:42.953Z,8.03
2018-09-30T02:35:15.670Z,7.00
2018-09-30T02:37:45.586Z,6.97
2018-09-30T02:40:14.833Z,10.40
2018-09-30T02:42:43.886Z,8.70
2018-09-30T02:45:13.154Z,7.00
2018-09-30T02:47:42.703Z,8.77
2018-09-30T02:50:11.906Z,7.70
2018-09-30T02:52:40.738Z,10.93
2018-09-30T02:55:09.999Z,8.93
2018-09-30T02:57:45.087Z,9.90
2018-09-30T03:00:18.831Z,8.93
2018-09-30T03:02:51.489Z,8.90
2018-09-30T03:05:20.887Z,7.93
2018-09-30T03:07:55.787Z,7.70
2018-09-30T03:10:25.339Z,10.83
2018-09-30T03:12:55.031Z,6.87
2018-09-30T03:15:24.484Z,8.10
2018-09-30T03:17:53.959Z,6.23
2018-09-30T03:20:22.897Z,9.13
2018-09-30T03:22:53.288Z,8.93
2018-09-30T03:25:22.598Z,6.73
2018-09-30T03:27:51.522Z,6.50
2018-09-30T03:30:20.845Z,6.80
2018-09-30T03:32:53.022Z,7.17
2018-09-30T03:35:21.985Z,8.03
2018-09-30T03:37:51.918Z,9.03
2018-09-30T03:40:21.675Z,7.00
2018-09-30T03:42:51.751Z,9.57
2018-09-30T03:45:21.059Z,15.53
2018-09-30T03:47:50.260Z,18.17
2018-09-30T03:50:24.295Z,18.47
2018-09-30T03:52:53.387Z,17.90
2018-09-30T03:55:22.752Z,15.10
2018-09-30T03:57:53.756Z,13.57
2018-09-30T04:00:23.125Z,12.77
2018-09-30T04:02:52.604Z,7.40
2018-09-30T04:05:21.960Z,5.73
2018-09-30T04:08:25.464Z,6.23
2018-09-30T04:10:54.851Z,6.17
2018-09-30T04:13:24.208Z,8.03
2018-09-30T04:15:54.143Z,6.83
2018-09-30T04:18:23.186Z,6.10
2018-09-30T04:20:52.951Z,5.43
2018-09-30T04:23:22.249Z,6.87
2018-09-30T04:25:51.805Z,7.83
2018-09-30T04:28:20.861Z,6.03
2018-09-30T04:30:49.843Z,9.50
2018-09-30T04:33:19.115Z,8.50
2018-09-30T04:35:49.123Z,6.90
2018-09-30T04:38:18.528Z,6.27
2018-09-30T04:40:47.698Z,6.33
2018-09-30T04:43:17.006Z,7.63
2018-09-30T04:45:47.249Z,6.17
2018-09-30T04:48:16.607Z,10.27
2018-09-30T04:50:46.317Z,5.77
2018-09-30T04:53:21.141Z,6.70
2018-09-30T04:56:20.014Z,6.97
2018-09-30T04:58:49.347Z,7.67
2018-09-30T05:01:18.815Z,7.37
2018-09-30T05:03:47.843Z,7.07
2018-09-30T05:06:23.086Z,7.03
2018-09-30T05:08:52.228Z,6.67
2018-09-30T05:11:21.625Z,7.17
2018-09-30T05:13:55.888Z,7.23
2018-09-30T05:16:26.198Z,6.73
2018-09-30T05:18:55.664Z,9.43
2018-09-30T05:21:24.544Z,7.53
2018-09-30T05:23:54.155Z,6.93
2018-09-30T05:26:23.286Z,6.90
2018-09-30T05:28:55.632Z,7.40
2018-09-30T05:31:25.088Z,6.13
2018-09-30T05:33:55.300Z,7.00
2018-09-30T05:36:24.628Z,6.43
2018-09-30T05:38:54.372Z,6.80
2018-09-30T05:41:23.807Z,6.13
2018-09-30T05:43:55.455Z,6.30
2018-09-30T05:46:24.997Z,8.70
2018-09-30T05:48:54.461Z,7.20
2018-09-30T05:51:23.785Z,6.43
2018-09-30T05:53:55.601Z,6.00
2018-09-30T05:56:25.023Z,6.80
2018-09-30T05:58:54.554Z,8.23
2018-09-30T06:01:24.763Z,6.90
2018-09-30T06:03:59.023Z,9.30
2018-09-30T06:06:28.561Z,8.33
2018-09-30T06:09:00.205Z,6.33
2018-09-30T06:11:29.273Z,9.47
2018-09-30T06:13:59.065Z,6.80
2018-09-30T06:16:28.309Z,7.40
2018-09-30T06:18:58.788Z,8.67
2018-09-30T06:21:27.793Z,7.00
2018-09-30T06:23:57.423Z,6.10
2018-09-30T06:26:27.180Z,7.30
2018-09-30T06:28:57.148Z,7.97
2018-09-30T06:31:27.257Z,7.10
2018-09-30T06:34:03.890Z,7.47
2018-09-30T06:36:33.196Z,8.50
2018-09-30T06:39:02.571Z,9.37
2018-09-30T06:41:32.549Z,10.67
2018-09-30T06:44:01.992Z,7.30
2018-09-30T06:46:31.611Z,7.03
2018-09-30T06:49:01.427Z,7.40
2018-09-30T06:51:31.556Z,7.40
2018-09-30T06:54:01.690Z,8.10
2018-09-30T06:56:32.591Z,7.20
2018-09-30T06:59:09.386Z,10.83
2018-09-30T07:01:39.520Z,7.93
2018-09-30T07:04:09.560Z,8.77
2018-09-30T07:06:39.599Z,7.87
2018-09-30T07:09:09.589Z,8.07
2018-09-30T07:11:38.898Z,12.00
2018-09-30T07:14:09.534Z,6.90
2018-09-30T07:16:39.615Z,8.37
2018-09-30T07:19:09.352Z,10.33
2018-09-30T07:21:39.025Z,7.87
2018-09-30T07:24:08.895Z,11.40
2018-09-30T07:26:38.521Z,11.43
2018-09-30T07:29:09.885Z,9.93
2018-09-30T07:31:40.128Z,8.33
2018-09-30T07:34:18.196Z,7.70
2018-09-30T07:36:49.028Z,7.97
2018-09-30T07:39:18.249Z,8.07
2018-09-30T07:41:55.065Z,7.63
2018-09-30T07:44:24.807Z,10.10
2018-09-30T07:46:55.451Z,7.30
2018-09-30T07:49:24.883Z,7.40
2018-09-30T07:51:54.692Z,8.53
2018-09-30T07:54:24.079Z,10.93
2018-09-30T07:56:53.568Z,11.40
2018-09-30T07:59:23.204Z,8.30
2018-09-30T08:01:54.143Z,8.53
2018-09-30T08:04:23.447Z,7.10
2018-09-30T08:06:52.984Z,11.63
2018-09-30T08:09:22.761Z,8.93
2018-09-30T08:11:52.643Z,10.50
2018-09-30T08:14:22.068Z,7.97
2018-09-30T08:16:52.283Z,10.37
2018-09-30T08:19:21.990Z,11.43
2018-09-30T08:21:51.442Z,11.67
2018-09-30T08:24:21.815Z,11.47
2018-09-30T08:26:52.125Z,14.40
2018-09-30T08:29:21.424Z,11.00
2018-09-30T08:31:51.828Z,18.43
2018-09-30T08:34:21.638Z,18.80
2018-09-30T08:36:51.314Z,16.83
2018-09-30T08:39:21.417Z,16.03
2018-09-30T08:41:51.792Z,15.37
2018-09-30T08:44:22.003Z,15.57
2018-09-30T08:46:51.791Z,19.33
2018-09-30T08:49:21.392Z,14.87
2018-09-30T08:51:51.212Z,18.80
2018-09-30T08:54:20.821Z,18.10
2018-09-30T08:56:50.161Z,20.23
2018-09-30T08:59:19.985Z,16.53
2018-09-30T09:01:52.420Z,16.53
2018-09-30T09:04:24.139Z,21.50
2018-09-30T09:06:53.731Z,20.80
2018-09-30T09:09:23.338Z,18.87
2018-09-30T09:11:52.831Z,18.40
2018-09-30T09:14:23.160Z,21.90
2018-09-30T09:16:52.757Z,21.23
2018-09-30T09:19:22.663Z,21.20
2018-09-30T09:21:52.522Z,18.37
2018-09-30T09:24:22.135Z,21.17
2018-09-30T09:26:51.734Z,19.83
2018-09-30T09:29:22.520Z,23.93
2018-09-30T09:31:53.850Z,25.33
2018-09-30T09:34:23.124Z,23.73
2018-09-30T09:36:52.653Z,23.10
2018-09-30T09:39:22.679Z,24.07
2018-09-30T09:41:52.114Z,24.67
2018-09-30T09:44:22.313Z,25.27
2018-09-30T09:46:52.307Z,25.93
2018-09-30T09:49:23.011Z,26.43
2018-09-30T09:51:52.370Z,21.50
2018-09-30T09:54:22.104Z,26.07
2018-09-30T09:56:51.707Z,22.70
2018-09-30T09:59:21.602Z,22.30
2018-09-30T10:01:51.403Z,24.73
2018-09-30T10:04:21.449Z,23.27
2018-09-30T10:06:51.478Z,25.30
2018-09-30T10:09:21.394Z,22.73
2018-09-30T10:11:51.872Z,29.03
2018-09-30T10:14:21.831Z,24.07
2018-09-30T10:16:51.642Z,25.37
2018-09-30T10:19:22.804Z,28.00
2018-09-30T10:21:53.686Z,25.52
2018-09-30T10:24:23.349Z,24.80
2018-09-30T10:26:53.667Z,24.07
2018-09-30T10:29:25.522Z,25.68
2018-09-30T10:31:55.403Z,26.82
2018-09-30T10:34:25.326Z,28.02
2018-09-30T10:36:54.923Z,25.48
2018-09-30T10:39:24.961Z,25.95
2018-09-30T10:41:55.036Z,23.98
2018-09-30T10:44:24.828Z,27.73
2018-09-30T10:46:54.948Z,24.32
2018-09-30T10:49:24.569Z,26.20
2018-09-30T10:51:55.086Z,26.42
2018-09-30T10:54:25.728Z,26.65
2018-09-30T10:56:55.308Z,25.23
2018-09-30T10:59:25.279Z,24.80
2018-09-30T11:01:54.907Z,23.70
2018-09-30T11:04:24.872Z,26.05
2018-09-30T11:06:54.208Z,27.77
2018-09-30T11:09:23.961Z,25.72
2018-09-30T11:11:53.965Z,23.77
2018-09-30T11:14:23.278Z,25.92
2018-09-30T11:16:53.631Z,25.27
2018-09-30T11:19:30.433Z,23.83
2018-09-30T11:22:06.671Z,21.62
2018-09-30T11:24:36.991Z,23.83
2018-09-30T11:27:06.657Z,22.45
2018-09-30T11:29:36.674Z,23.12
2018-09-30T11:32:07.272Z,23.00
2018-09-30T11:34:38.079Z,27.50
2018-09-30T11:37:07.305Z,21.62
2018-09-30T11:39:37.805Z,24.25
2018-09-30T11:42:07.487Z,22.85
2018-09-30T11:44:38.595Z,20.90
2018-09-30T11:47:08.714Z,21.45
2018-09-30T11:49:38.872Z,21.45
2018-09-30T11:52:08.833Z,11.68
2018-09-30T11:54:38.961Z,11.68
2018-09-30T11:57:08.582Z,12.93
2018-09-30T12:02:18.526Z,18.42
2018-09-30T12:04:52.442Z,17.40
2018-09-30T12:07:30.353Z,15.40
2018-09-30T12:10:01.020Z,8.45
2018-09-30T12:12:31.787Z,16.07
2018-09-30T12:15:01.587Z,14.63
2018-09-30T12:17:32.541Z,11.40
2018-09-30T12:20:04.826Z,13.15
2018-09-30T12:22:35.141Z,8.90
2018-09-30T12:25:07.754Z,12.98
2018-09-30T12:27:38.322Z,9.35
2018-09-30T12:30:09.782Z,6.40
2018-09-30T12:32:40.514Z,13.50
2018-09-30T12:35:11.041Z,12.75
2018-09-30T12:37:41.438Z,19.20
2018-09-30T12:40:11.531Z,8.48
2018-09-30T12:42:42.727Z,7.90
2018-09-30T12:45:14.067Z,7.05
2018-09-30T12:47:44.335Z,11.45
2018-09-30T12:50:14.664Z,8.60
2018-09-30T12:52:44.738Z,8.50
2018-09-30T12:55:15.085Z,7.92
2018-09-30T12:57:45.378Z,8.70
2018-09-30T13:00:15.792Z,6.03
2018-09-30T13:02:45.625Z,8.95
2018-09-30T13:05:15.859Z,8.10
2018-09-30T13:07:46.249Z,6.03
2018-09-30T13:10:16.529Z,11.35
2018-09-30T13:12:46.341Z,6.40
2018-09-30T13:15:16.287Z,6.30
2018-09-30T13:17:46.826Z,8.50
2018-09-30T13:20:16.680Z,6.60
2018-09-30T13:22:46.179Z,7.60
2018-09-30T13:25:16.192Z,6.83
2018-09-30T13:27:46.192Z,6.15
2018-09-30T13:30:16.727Z,4.72
2018-09-30T13:32:47.405Z,5.60
2018-09-30T13:35:17.667Z,6.47
2018-09-30T13:37:47.799Z,6.15
2018-09-30T13:40:18.474Z,6.83
2018-09-30T13:42:47.862Z,6.80
2018-09-30T13:45:18.333Z,6.45
2018-09-30T13:47:48.097Z,6.83
2018-09-30T13:50:17.888Z,4.22
2018-09-30T13:52:47.589Z,5.78
2018-09-30T13:55:16.909Z,4.30
2018-09-30T13:57:46.635Z,5.45
2018-09-30T14:00:17.123Z,8.00
2018-09-30T14:02:47.700Z,5.25
2018-09-30T14:05:17.804Z,3.85
2018-09-30T14:07:47.882Z,5.95
2018-09-30T14:10:17.711Z,5.83
2018-09-30T14:12:47.155Z,5.90
2018-09-30T14:15:16.791Z,3.60
2018-09-30T14:17:46.881Z,5.72
2018-09-30T14:20:16.547Z,4.10
2018-09-30T14:22:45.952Z,3.87
2018-09-30T14:25:16.262Z,3.52
2018-09-30T14:27:46.284Z,3.52
2018-09-30T14:30:16.130Z,3.40
2018-09-30T14:32:46.384Z,3.33
2018-09-30T14:35:16.222Z,5.12
2018-09-30T14:37:45.622Z,3.47
2018-09-30T14:40:15.682Z,3.85
2018-09-30T14:42:45.776Z,3.90
2018-09-30T14:45:23.098Z,5.30
2018-09-30T14:48:09.270Z,3.17
2018-09-30T14:50:41.593Z,3.10
2018-09-30T14:53:12.076Z,3.20
2018-09-30T14:55:44.053Z,4.35
2018-09-30T14:58:22.911Z,3.00
2018-09-30T15:00:55.144Z,3.45
2018-09-30T15:03:25.899Z,3.15
2018-09-30T15:05:56.625Z,3.00
2018-09-30T15:08:36.530Z,3.62
2018-09-30T15:11:09.849Z,4.35
2018-09-30T15:13:42.113Z,3.80
2018-09-30T15:16:14.107Z,3.70
2018-09-30T15:18:59.958Z,3.62
2018-09-30T15:21:31.610Z,4.33
2018-09-30T15:24:02.343Z,4.22
2018-09-30T15:26:33.303Z,6.50
2018-09-30T15:29:08.722Z,6.75
2018-09-30T15:31:55.355Z,4.10
2018-09-30T15:34:26.378Z,6.25
2018-09-30T15:36:56.357Z,4.58
2018-09-30T15:39:28.099Z,4.58
2018-09-30T15:42:01.364Z,5.87
2018-09-30T15:44:35.134Z,4.08
2018-09-30T15:47:06.948Z,4.75
2018-09-30T15:49:37.486Z,5.20
2018-09-30T15:52:07.807Z,25.57
2018-09-30T15:54:47.024Z,17.15
2018-09-30T15:57:30.207Z,17.15
2018-09-30T16:00:00.199Z,12.28
2018-09-30T16:02:34.344Z,4.85
2018-09-30T16:05:04.361Z,8.85
2018-09-30T16:07:39.513Z,9.53
2018-09-30T16:10:11.445Z,4.83
2018-09-30T16:12:41.482Z,4.62
2018-09-30T16:15:11.409Z,4.53
2018-09-30T16:17:40.602Z,5.17
2018-09-30T16:20:10.340Z,5.33
2018-09-30T16:22:40.612Z,4.67
2018-09-30T16:25:10.431Z,4.75
2018-09-30T16:27:40.037Z,6.55
2018-09-30T16:30:10.030Z,5.20
2018-09-30T16:32:39.969Z,3.87
2018-09-30T16:35:09.795Z,4.75
2018-09-30T16:37:39.793Z,5.37
2018-09-30T16:40:09.563Z,6.40
2018-09-30T16:42:39.045Z,6.80
2018-09-30T16:45:08.678Z,4.65
2018-09-30T16:47:39.222Z,4.65
2018-09-30T16:50:09.149Z,5.12
2018-09-30T16:52:38.846Z,4.53
2018-09-30T16:55:08.509Z,4.50
2018-09-30T16:57:38.571Z,3.95
2018-09-30T17:00:10.957Z,4.37
2018-09-30T17:02:40.430Z,5.12
2018-09-30T17:05:10.080Z,5.37
2018-09-30T17:07:42.039Z,5.17
2018-09-30T17:10:11.688Z,5.12
2018-09-30T17:12:41.268Z,5.30
2018-09-30T17:15:10.658Z,5.03
2018-09-30T17:17:40.069Z,4.97
2018-09-30T17:20:09.797Z,5.30
2018-09-30T17:22:40.287Z,5.55
2018-09-30T17:25:09.856Z,5.08
2018-09-30T17:27:38.972Z,5.35
2018-09-30T17:30:08.733Z,5.95
2018-09-30T17:32:38.828Z,5.62
2018-09-30T17:35:08.355Z,5.55
2018-09-30T17:37:38.139Z,8.10
2018-09-30T17:40:07.650Z,6.28
2018-09-30T17:42:37.857Z,6.20
2018-09-30T17:45:07.944Z,4.95
2018-09-30T17:47:37.544Z,5.90
2018-09-30T17:50:07.182Z,7.45
2018-09-30T17:52:37.459Z,9.75
2018-09-30T17:55:07.008Z,6.80
2018-09-30T17:57:35.836Z,5.83
2018-09-30T18:00:06.780Z,5.72
2018-09-30T18:02:36.543Z,6.08
2018-09-30T18:05:08.482Z,6.10
2018-09-30T18:07:38.981Z,5.78
2018-09-30T18:10:08.816Z,5.58
2018-09-30T18:12:38.600Z,5.60
2018-09-30T18:15:09.261Z,6.50
2018-09-30T18:17:39.459Z,7.65
2018-09-30T18:20:10.802Z,8.95
2018-09-30T18:22:40.705Z,7.92
2018-09-30T18:25:10.208Z,7.90
2018-09-30T18:27:40.357Z,8.13
2018-09-30T18:30:11.877Z,7.83
2018-09-30T18:32:41.833Z,8.03
2018-09-30T18:35:12.744Z,8.15
2018-09-30T18:37:43.395Z,9.70
2018-09-30T18:40:13.591Z,11.57
2018-09-30T18:42:43.644Z,13.32
2018-09-30T18:45:13.473Z,12.55
2018-09-30T18:47:43.626Z,10.45
2018-09-30T18:50:13.424Z,11.85
2018-09-30T18:52:44.412Z,10.78
2018-09-30T18:55:13.894Z,12.37
2018-09-30T18:57:43.867Z,10.95
2018-09-30T19:00:14.992Z,9.98
2018-09-30T19:02:45.905Z,6.80
2018-09-30T19:05:15.894Z,5.58
2018-09-30T19:07:45.689Z,5.53
2018-09-30T19:10:15.345Z,6.12
2018-09-30T19:12:45.386Z,6.28
2018-09-30T19:15:15.481Z,5.50
2018-09-30T19:17:45.467Z,7.85
2018-09-30T19:20:19.073Z,6.85
2018-09-30T19:22:49.670Z,6.25
2018-09-30T19:25:19.950Z,6.62
2018-09-30T19:27:49.683Z,6.87
2018-09-30T19:30:19.083Z,6.67
2018-09-30T19:32:49.764Z,5.75
2018-09-30T19:35:19.623Z,6.87
2018-09-30T19:37:48.658Z,6.28
2018-09-30T19:40:18.327Z,6.15
2018-09-30T19:42:51.965Z,6.53
2018-09-30T19:45:24.795Z,7.17
2018-09-30T19:47:54.214Z,6.62
2018-09-30T19:50:26.408Z,6.67
2018-09-30T19:52:56.167Z,5.67
2018-09-30T19:55:27.899Z,6.72
2018-09-30T19:57:58.295Z,6.20
2018-09-30T20:00:28.051Z,6.53
2018-09-30T20:02:57.713Z,6.08
2018-09-30T20:05:27.616Z,6.53
2018-09-30T20:07:58.086Z,6.22
2018-09-30T20:10:28.071Z,6.47
2018-09-30T20:12:57.734Z,6.20
2018-09-30T20:15:27.456Z,6.03
2018-09-30T20:17:56.916Z,6.35
2018-09-30T20:20:26.465Z,6.00
2018-09-30T20:22:55.864Z,6.95
2018-09-30T20:25:25.910Z,6.67
2018-09-30T20:27:55.500Z,5.25
2018-09-30T20:30:24.848Z,6.22
2018-09-30T20:32:54.371Z,6.10
2018-09-30T20:35:24.188Z,7.95
2018-09-30T20:37:53.548Z,9.78
2018-09-30T20:40:22.682Z,12.15
2018-09-30T20:42:51.773Z,8.08
2018-09-30T20:45:21.309Z,7.55
2018-09-30T20:47:51.051Z,7.17
2018-09-30T20:50:22.405Z,6.83
2018-09-30T20:52:51.891Z,7.15
2018-09-30T20:55:21.616Z,5.87
2018-09-30T20:57:51.175Z,7.03
2018-09-30T21:00:21.216Z,5.55
2018-09-30T21:02:50.943Z,5.60
2018-09-30T21:06:38.893Z,5.17
2018-09-30T21:09:10.613Z,7.75
2018-09-30T21:11:40.103Z,4.90
2018-09-30T21:14:09.400Z,6.17
2018-09-30T21:16:38.970Z,5.10
2018-09-30T21:19:08.838Z,5.57
2018-09-30T21:21:38.046Z,5.77
2018-09-30T21:24:12.732Z,10.40
2018-09-30T21:26:44.202Z,5.55
2018-09-30T21:29:14.674Z,6.37
2018-09-30T21:31:45.465Z,7.27
2018-09-30T21:34:14.787Z,7.20
2018-09-30T21:36:45.192Z,7.33
2018-09-30T21:39:15.321Z,7.40
2018-09-30T21:41:47.350Z,8.50
2018-09-30T21:44:16.834Z,7.30
2018-09-30T21:46:46.476Z,6.23
2018-09-30T21:49:15.956Z,7.23
2018-09-30T21:51:45.274Z,6.90
2018-09-30T21:54:14.829Z,6.33
2018-09-30T21:56:45.625Z,5.00
2018-09-30T21:59:15.069Z,4.60
2018-09-30T22:01:45.199Z,5.53
2018-09-30T22:04:14.732Z,5.17
2018-09-30T22:06:44.564Z,3.93
2018-09-30T22:09:13.741Z,5.47
2018-09-30T22:11:43.460Z,4.27
2018-09-30T22:14:12.925Z,5.17
2018-09-30T22:16:42.790Z,4.10
2018-09-30T22:19:11.916Z,4.60
2018-09-30T22:21:41.096Z,4.37
2018-09-30T22:24:10.433Z,6.80
2018-09-30T22:26:40.696Z,4.40
2018-09-30T22:29:09.688Z,4.03
2018-09-30T22:31:39.282Z,3.93
2018-09-30T22:34:08.854Z,3.80
2018-09-30T22:36:38.476Z,3.30
2018-09-30T22:39:08.577Z,3.33
2018-09-30T22:41:39.523Z,3.70
2018-09-30T22:44:08.918Z,3.63
2018-09-30T22:46:38.165Z,3.33
2018-09-30T22:49:07.468Z,3.67
2018-09-30T22:51:36.740Z,3.53
2018-09-30T22:54:06.145Z,3.70
2018-09-30T22:56:37.487Z,2.95
2018-09-30T22:59:06.408Z,3.10
2018-09-30T23:01:35.975Z,3.17
2018-09-30T23:04:05.256Z,2.77
2018-09-30T23:06:35.401Z,3.20
2018-09-30T23:09:06.121Z,3.20
2018-09-30T23:11:36.041Z,3.27
2018-09-30T23:14:05.177Z,2.57
2018-09-30T23:16:34.811Z,2.60
2018-09-30T23:19:03.940Z,4.20
2018-09-30T23:21:33.403Z,3.13
2018-09-30T23:24:02.971Z,3.27
2018-09-30T23:26:32.210Z,2.57
2018-09-30T23:29:01.621Z,2.47
2018-09-30T23:31:35.512Z,2.30
2018-09-30T23:34:04.589Z,2.60
2018-09-30T23:36:33.724Z,2.50
2018-09-30T23:39:02.869Z,2.47
2018-09-30T23:41:32.458Z,2.37
2018-09-30T23:44:01.537Z,1.97
2018-09-30T23:46:30.630Z,2.33
2018-09-30T23:49:00.685Z,2.20
2018-09-30T23:51:30.735Z,1.90
2018-09-30T23:53:59.686Z,2.20
2018-09-30T23:56:28.745Z,2.10
2018-09-30T23:58:57.819Z,2.17
